Huvudsida
METAR-TAF:

METAR-TAF

Flygplatser :

Umeå Airport

Umeå, Sverige

latitud: 63-48N, longitud: 020-17E, höjd: 7 m

Aktuellt väderrapport

Denna rapport gjordes för 37 minuter sedan, klockan 18:50 UTC
Vind 5 kt från väst
Temperatur 21°C
Fuktighet 49%
Tryck 1015 hPa
Sikt 10 km eller mer

METAR: ESNU 251850Z AUTO 28005KT 9999 NCD 21/10 Q1015

Tid: 21:27 (19:27 UTC)

Väderprognos

Denna rapport gjordes för 1 timme och 57 minuter sedan, klockan 17:30 UTC
Prognos gäller från 25 kl. 18 UTC till 26 kl. 03 UTC
Vind 9 kt från väst/sydväst
Sikt 10 km eller mer
Inga moln under 1 500 m eller inga cumulonimbus

TAF: ESNU 251730Z 2518/2603 25009KT CAVOK

Aktuella väderrapporter och prognoser från 4000 flygplatser (METAR- och TAF-rapporter).

De tillgängliga stationerna syns som gula och röda prickar på kartan.

För musen över prickarna för att se namnen på stationerna.

Klicka sedan för att få väderrapporter och prognoser.

För att ändra kartan: Klicka på de gröna knapparna med ett svart kors på för att zooma in; den gröna knappen med ett streck på för att zooma ut; eller på de gröna pilarna för angränsande kartor.


METAR-TAF: